createdAt,value
2022-09-11T00:01:00.359Z,25.93
2022-09-11T00:03:28.228Z,32.17
2022-09-11T00:05:54.966Z,34.73
2022-09-11T00:08:21.732Z,39.57
2022-09-11T00:10:48.825Z,29.90
2022-09-11T00:13:21.530Z,30.40
2022-09-11T00:15:51.954Z,35.80
2022-09-11T00:18:21.841Z,25.63
2022-09-11T00:20:56.643Z,31.17
2022-09-11T00:23:25.990Z,30.67
2022-09-11T00:25:52.984Z,30.33
2022-09-11T00:28:24.490Z,28.73
2022-09-11T00:31:06.040Z,26.37
2022-09-11T00:33:33.504Z,26.53
2022-09-11T00:36:03.971Z,27.13
2022-09-11T00:38:33.292Z,24.87
2022-09-11T00:41:01.309Z,25.17
2022-09-11T00:43:29.183Z,26.47
2022-09-11T00:45:59.863Z,23.77
2022-09-11T00:48:29.891Z,23.67
2022-09-11T00:50:56.842Z,21.10
2022-09-11T00:53:25.689Z,20.67
2022-09-11T00:55:58.016Z,22.17
2022-09-11T00:58:28.568Z,23.37
2022-09-11T01:00:56.468Z,22.43
2022-09-11T01:03:25.462Z,23.07
2022-09-11T01:05:52.482Z,18.40
2022-09-11T01:08:20.929Z,22.97
2022-09-11T01:11:05.906Z,20.30
2022-09-11T01:13:50.907Z,23.00
2022-09-11T01:16:53.316Z,22.83
2022-09-11T01:19:56.989Z,22.33
2022-09-11T01:22:41.452Z,21.03
2022-09-11T01:25:31.553Z,16.57
2022-09-11T01:28:00.910Z,15.20
2022-09-11T01:30:37.443Z,17.00
2022-09-11T01:33:28.177Z,15.33
2022-09-11T01:36:11.158Z,20.47
2022-09-11T01:38:50.136Z,20.17
2022-09-11T01:41:29.775Z,19.10
2022-09-11T01:44:03.814Z,22.57
2022-09-11T01:46:34.829Z,22.60
2022-09-11T01:49:15.517Z,18.90
2022-09-11T01:51:42.585Z,17.27
2022-09-11T01:54:17.074Z,21.27
2022-09-11T01:56:48.431Z,17.93
2022-09-11T01:59:16.601Z,22.37
2022-09-11T02:01:45.507Z,27.90
2022-09-11T02:04:24.644Z,27.03
2022-09-11T02:06:56.589Z,27.70
2022-09-11T02:09:25.993Z,25.83
2022-09-11T02:11:55.029Z,21.37
2022-09-11T02:14:29.865Z,47.37
2022-09-11T02:17:38.234Z,34.47
2022-09-11T02:20:05.545Z,30.63
2022-09-11T02:22:32.054Z,32.57
2022-09-11T02:24:58.521Z,28.90
2022-09-11T02:27:27.369Z,23.33
2022-09-11T02:29:55.006Z,18.63
2022-09-11T02:32:22.374Z,25.00
2022-09-11T02:34:50.352Z,23.87
2022-09-11T02:37:31.422Z,19.10
2022-09-11T02:40:04.069Z,26.70
2022-09-11T02:43:09.532Z,22.67
2022-09-11T02:45:44.552Z,23.47
2022-09-11T02:48:37.992Z,30.60
2022-09-11T02:51:26.363Z,23.60
2022-09-11T02:53:55.882Z,34.10
2022-09-11T02:56:39.842Z,25.70
2022-09-11T02:59:29.012Z,32.83
2022-09-11T03:01:59.589Z,43.10
2022-09-11T03:04:26.413Z,37.77
2022-09-11T03:06:53.400Z,43.40
2022-09-11T03:09:20.401Z,29.90
2022-09-11T03:11:46.888Z,30.73
2022-09-11T03:14:14.262Z,36.47
2022-09-11T03:16:41.627Z,49.37
2022-09-11T03:19:08.185Z,46.07
2022-09-11T03:21:35.142Z,28.17
2022-09-11T03:24:02.005Z,23.97
2022-09-11T03:26:29.507Z,17.03
2022-09-11T03:28:56.166Z,45.13
2022-09-11T03:31:22.676Z,32.67
2022-09-11T03:33:49.146Z,44.83
2022-09-11T03:36:15.712Z,19.33
2022-09-11T03:38:42.149Z,47.10
2022-09-11T03:41:09.608Z,41.23
2022-09-11T03:43:36.044Z,36.20
2022-09-11T03:46:03.239Z,34.37
2022-09-11T03:48:29.858Z,30.67
2022-09-11T03:50:56.384Z,31.23
2022-09-11T03:53:22.870Z,31.93
2022-09-11T03:55:52.252Z,33.17
2022-09-11T03:58:19.462Z,34.53
2022-09-11T04:00:46.594Z,22.73
2022-09-11T04:03:15.475Z,27.77
2022-09-11T04:05:44.116Z,39.57
2022-09-11T04:08:13.724Z,31.13
2022-09-11T04:10:40.782Z,29.07
2022-09-11T04:13:07.250Z,35.70
2022-09-11T04:15:33.878Z,36.30
2022-09-11T04:18:04.901Z,30.03
2022-09-11T04:20:32.205Z,34.07
2022-09-11T04:22:58.982Z,26.43
2022-09-11T04:25:25.824Z,29.03
2022-09-11T04:27:52.265Z,37.23
2022-09-11T04:30:19.865Z,30.43
2022-09-11T04:32:46.320Z,32.50
2022-09-11T04:35:12.804Z,28.97
2022-09-11T04:37:40.651Z,24.47
2022-09-11T04:40:08.003Z,31.10
2022-09-11T04:42:34.531Z,26.73
2022-09-11T04:45:00.998Z,27.70
2022-09-11T04:47:28.437Z,25.17
2022-09-11T04:49:55.161Z,23.30
2022-09-11T04:52:21.583Z,37.93
2022-09-11T04:54:48.486Z,22.43
2022-09-11T04:57:14.958Z,36.53
2022-09-11T04:59:41.464Z,27.93
2022-09-11T05:02:08.018Z,31.13
2022-09-11T05:04:34.536Z,30.03
2022-09-11T05:07:01.069Z,34.93
2022-09-11T05:09:27.847Z,32.67
2022-09-11T05:11:54.546Z,29.97
2022-09-11T05:14:21.008Z,25.10
2022-09-11T05:16:47.607Z,30.67
2022-09-11T05:19:14.145Z,23.60
2022-09-11T05:21:41.532Z,25.73
2022-09-11T05:24:08.189Z,25.67
2022-09-11T05:26:36.934Z,32.37
2022-09-11T05:29:09.263Z,27.90
2022-09-11T05:31:37.259Z,21.17
2022-09-11T05:34:04.992Z,31.73
2022-09-11T05:36:31.967Z,26.57
2022-09-11T05:38:58.683Z,28.97
2022-09-11T05:41:25.362Z,24.63
2022-09-11T05:43:51.825Z,25.57
2022-09-11T05:46:19.594Z,28.73
2022-09-11T05:48:46.327Z,32.90
2022-09-11T05:51:19.256Z,28.83
2022-09-11T05:53:46.294Z,25.40
2022-09-11T05:56:21.388Z,24.83
2022-09-11T05:58:48.744Z,28.57
2022-09-11T06:01:17.734Z,35.10
2022-09-11T06:03:44.634Z,27.50
2022-09-11T06:06:12.609Z,26.07
2022-09-11T06:08:42.299Z,22.60
2022-09-11T06:11:08.889Z,30.43
2022-09-11T06:13:39.033Z,25.43
2022-09-11T06:16:09.340Z,23.53
2022-09-11T06:18:35.792Z,21.67
2022-09-11T06:21:07.770Z,23.33
2022-09-11T06:23:35.376Z,24.33
2022-09-11T06:26:06.022Z,21.83
2022-09-11T06:28:32.540Z,26.13
2022-09-11T06:30:59.031Z,29.87
2022-09-11T06:33:25.496Z,22.23
2022-09-11T06:36:02.900Z,24.10
2022-09-11T06:38:30.118Z,23.27
2022-09-11T06:40:56.778Z,23.30
2022-09-11T06:43:23.498Z,20.57
2022-09-11T06:45:50.045Z,21.90
2022-09-11T06:48:17.297Z,22.70
2022-09-11T06:50:43.834Z,19.73
2022-09-11T06:53:11.662Z,20.77
2022-09-11T06:55:41.430Z,23.40
2022-09-11T06:58:08.572Z,19.70
2022-09-11T07:00:36.178Z,22.27
2022-09-11T07:03:04.006Z,20.83
2022-09-11T07:05:31.021Z,22.77
2022-09-11T07:07:57.867Z,18.93
2022-09-11T07:10:24.783Z,19.40
2022-09-11T07:12:52.929Z,17.90
2022-09-11T07:15:19.412Z,18.10
2022-09-11T07:17:45.849Z,15.83
2022-09-11T07:20:12.370Z,19.30
2022-09-11T07:22:39.093Z,18.83
2022-09-11T07:25:07.691Z,17.00
2022-09-11T07:27:34.367Z,15.67
2022-09-11T07:30:00.798Z,15.93
2022-09-11T07:32:27.258Z,12.47
2022-09-11T07:34:53.795Z,13.67
2022-09-11T07:37:20.272Z,11.93
2022-09-11T07:39:47.215Z,11.53
2022-09-11T07:42:13.673Z,12.17
2022-09-11T07:44:40.174Z,14.40
2022-09-11T07:47:06.672Z,13.37
2022-09-11T07:49:33.155Z,12.93
2022-09-11T07:51:59.825Z,13.87
2022-09-11T07:54:29.100Z,12.67
2022-09-11T07:56:56.172Z,10.60
2022-09-11T07:59:22.988Z,11.20
2022-09-11T08:01:50.258Z,11.40
2022-09-11T08:04:16.967Z,11.00
2022-09-11T08:06:43.694Z,11.40
2022-09-11T08:09:13.122Z,10.63
2022-09-11T08:11:45.882Z,10.03
2022-09-11T08:14:13.837Z,9.33
2022-09-11T08:16:40.741Z,10.27
2022-09-11T08:19:08.319Z,9.43
2022-09-11T08:21:35.085Z,10.00
2022-09-11T08:24:01.986Z,9.67
2022-09-11T08:26:30.344Z,9.67
2022-09-11T08:28:58.272Z,9.60
2022-09-11T08:31:26.943Z,10.30
2022-09-11T08:33:54.610Z,9.87
2022-09-11T08:36:21.360Z,9.80
2022-09-11T08:38:47.904Z,9.70
2022-09-11T08:41:36.074Z,9.27
2022-09-11T08:44:14.217Z,10.17
2022-09-11T08:46:43.898Z,8.70
2022-09-11T08:49:10.289Z,9.73
2022-09-11T08:51:37.397Z,8.70
2022-09-11T08:54:04.095Z,9.50
2022-09-11T08:56:31.432Z,9.80
2022-09-11T08:59:32.943Z,9.37
2022-09-11T09:02:20.633Z,9.40
2022-09-11T09:05:20.225Z,9.00
2022-09-11T09:08:11.497Z,9.37
2022-09-11T09:10:53.839Z,8.37
2022-09-11T09:13:55.661Z,7.63
2022-09-11T09:16:40.195Z,7.30
2022-09-11T09:19:19.390Z,6.70
2022-09-11T09:22:06.274Z,6.40
2022-09-11T09:24:54.998Z,5.90
2022-09-11T09:27:34.893Z,5.33
2022-09-11T09:30:06.085Z,4.73
2022-09-11T09:32:37.898Z,4.40
2022-09-11T09:35:13.189Z,5.30
2022-09-11T09:37:39.738Z,4.03
2022-09-11T09:40:09.343Z,4.27
2022-09-11T09:43:27.058Z,4.47
2022-09-11T09:46:01.034Z,4.70
2022-09-11T09:48:29.333Z,4.60
2022-09-11T09:50:56.438Z,4.97
2022-09-11T09:53:46.194Z,6.17
2022-09-11T09:56:16.357Z,5.37
2022-09-11T09:58:57.349Z,4.87
2022-09-11T10:01:47.755Z,4.20
2022-09-11T10:04:16.145Z,4.07
2022-09-11T10:06:46.869Z,3.73
2022-09-11T10:09:29.513Z,3.67
2022-09-11T10:12:01.888Z,4.80
2022-09-11T10:14:51.019Z,5.03
2022-09-11T10:17:31.315Z,4.63
2022-09-11T10:20:18.551Z,5.40
2022-09-11T10:22:45.864Z,4.80
2022-09-11T10:25:14.511Z,4.43
2022-09-11T10:27:56.361Z,4.10
2022-09-11T10:30:33.992Z,3.90
2022-09-11T10:33:03.886Z,2.10
2022-09-11T10:35:31.705Z,2.50
2022-09-11T10:38:17.809Z,2.27
2022-09-11T10:41:15.284Z,2.10
2022-09-11T10:43:41.752Z,1.90
2022-09-11T10:46:40.962Z,1.60
2022-09-11T10:49:23.723Z,1.80
2022-09-11T10:52:00.902Z,1.57
2022-09-11T10:55:06.416Z,1.77
2022-09-11T10:57:57.574Z,1.60
2022-09-11T11:00:31.427Z,1.60
2022-09-11T11:03:05.335Z,1.77
2022-09-11T11:05:50.641Z,1.70
2022-09-11T11:08:51.288Z,1.30
2022-09-11T11:11:40.303Z,1.40
2022-09-11T11:14:32.299Z,1.40
2022-09-11T11:17:05.554Z,1.30
2022-09-11T11:19:53.757Z,1.50
2022-09-11T11:22:58.399Z,1.40
2022-09-11T11:25:37.584Z,1.30
2022-09-11T11:28:16.043Z,1.17
2022-09-11T11:30:49.145Z,1.40
2022-09-11T11:33:25.642Z,1.20
2022-09-11T11:36:10.922Z,1.30
2022-09-11T11:38:46.384Z,1.33
2022-09-11T11:41:19.505Z,1.30
2022-09-11T11:43:48.252Z,1.50
2022-09-11T11:46:38.926Z,1.43
2022-09-11T11:49:19.463Z,1.40
2022-09-11T11:52:19.258Z,1.40
2022-09-11T11:55:13.181Z,1.30
2022-09-11T11:57:42.348Z,1.47
2022-09-11T12:00:15.347Z,1.40
2022-09-11T12:03:01.183Z,1.33
2022-09-11T12:05:32.983Z,1.50
2022-09-11T12:08:14.478Z,1.23
2022-09-11T12:10:46.279Z,1.73
2022-09-11T12:13:18.114Z,1.50
2022-09-11T12:16:31.948Z,1.50
2022-09-11T12:19:09.967Z,1.40
2022-09-11T12:22:23.403Z,1.47
2022-09-11T12:25:07.786Z,1.63
2022-09-11T12:28:27.196Z,1.30
2022-09-11T12:31:15.105Z,1.23
2022-09-11T12:33:42.079Z,1.30
2022-09-11T12:36:13.850Z,1.27
2022-09-11T12:38:59.000Z,1.20
2022-09-11T12:41:34.285Z,1.30
2022-09-11T12:44:03.359Z,1.30
2022-09-11T12:46:30.268Z,1.30
2022-09-11T12:49:21.170Z,1.20
2022-09-11T12:51:56.153Z,1.30
2022-09-11T12:54:27.959Z,1.40
2022-09-11T12:57:09.381Z,1.30
2022-09-11T12:59:42.906Z,1.27
2022-09-11T13:02:26.940Z,1.60
2022-09-11T13:04:55.035Z,1.30
2022-09-11T13:07:32.735Z,1.10
2022-09-11T13:10:08.372Z,1.27
2022-09-11T13:12:35.399Z,1.47
2022-09-11T13:15:03.752Z,1.40
2022-09-11T13:17:39.591Z,1.40
2022-09-11T13:20:18.021Z,1.23
2022-09-11T13:22:56.080Z,1.10
2022-09-11T13:25:29.197Z,1.40
2022-09-11T13:28:03.042Z,1.53
2022-09-11T13:30:30.300Z,1.50
2022-09-11T13:33:11.111Z,1.50
2022-09-11T13:35:42.435Z,1.40
2022-09-11T13:38:29.304Z,1.47
2022-09-11T13:41:04.173Z,1.30
2022-09-11T13:43:48.044Z,1.30
2022-09-11T13:46:16.881Z,1.30
2022-09-11T13:48:48.221Z,1.30
2022-09-11T13:51:19.856Z,1.30
2022-09-11T13:53:58.104Z,1.27
2022-09-11T13:57:07.326Z,1.27
2022-09-11T13:59:38.646Z,1.40
2022-09-11T14:02:44.262Z,1.23
2022-09-11T14:05:21.414Z,1.40
2022-09-11T14:08:07.877Z,1.90
2022-09-11T14:10:44.765Z,1.30
2022-09-11T14:13:32.457Z,1.50
2022-09-11T14:16:09.087Z,1.43
2022-09-11T14:18:46.553Z,1.40
2022-09-11T14:21:21.086Z,1.50
2022-09-11T14:23:53.313Z,1.40
2022-09-11T14:26:25.372Z,1.30
2022-09-11T14:28:56.807Z,1.27
2022-09-11T14:31:29.167Z,1.43
2022-09-11T14:34:22.476Z,1.20
2022-09-11T14:37:06.077Z,1.37
2022-09-11T14:39:42.516Z,1.20
2022-09-11T14:42:16.970Z,1.30
2022-09-11T14:44:53.059Z,1.20
2022-09-11T14:47:26.704Z,1.40
2022-09-11T14:49:55.195Z,1.30
2022-09-11T14:52:28.118Z,1.20
2022-09-11T14:54:57.289Z,1.23
2022-09-11T14:57:28.119Z,1.47
2022-09-11T14:59:55.219Z,1.40
2022-09-11T15:02:25.029Z,1.33
2022-09-11T15:04:53.705Z,1.30
2022-09-11T15:07:23.481Z,1.50
2022-09-11T15:09:52.123Z,1.37
2022-09-11T15:12:21.615Z,1.40
2022-09-11T15:14:58.849Z,1.50
2022-09-11T15:17:26.374Z,1.20
2022-09-11T15:19:53.816Z,1.30
2022-09-11T15:22:22.313Z,1.30
2022-09-11T15:24:50.280Z,1.53
2022-09-11T15:27:19.922Z,1.50
2022-09-11T15:29:46.922Z,1.40
2022-09-11T15:32:14.895Z,1.30
2022-09-11T15:34:44.382Z,1.30
2022-09-11T15:37:12.321Z,1.30
2022-09-11T15:39:39.641Z,1.30
2022-09-11T15:42:08.136Z,1.23
2022-09-11T15:44:36.176Z,1.20
2022-09-11T15:47:04.709Z,1.30
2022-09-11T15:49:34.398Z,1.10
2022-09-11T15:52:03.043Z,1.40
2022-09-11T15:54:29.990Z,1.27
2022-09-11T15:56:57.396Z,1.30
2022-09-11T15:59:24.631Z,1.40
2022-09-11T16:01:52.002Z,1.20
2022-09-11T16:04:22.356Z,1.20
2022-09-11T16:06:52.109Z,1.47
2022-09-11T16:09:22.275Z,1.43
2022-09-11T16:11:51.561Z,1.40
2022-09-11T16:14:22.411Z,1.20
2022-09-11T16:16:50.359Z,1.40
2022-09-11T16:19:21.285Z,1.40
2022-09-11T16:21:49.281Z,1.40
2022-09-11T16:24:18.181Z,1.37
2022-09-11T16:26:46.608Z,1.40
2022-09-11T16:29:21.239Z,1.53
2022-09-11T16:31:50.063Z,1.43
2022-09-11T16:34:18.667Z,1.50
2022-09-11T16:36:46.602Z,1.50
2022-09-11T16:39:19.576Z,1.30
2022-09-11T16:41:47.087Z,1.33
2022-09-11T16:44:16.543Z,1.40
2022-09-11T16:46:45.536Z,1.50
2022-09-11T16:49:16.285Z,1.40
2022-09-11T16:51:44.792Z,1.40
2022-09-11T16:54:12.096Z,1.37
2022-09-11T16:56:43.946Z,1.40
2022-09-11T16:59:13.866Z,1.37
2022-09-11T17:01:40.911Z,1.40
2022-09-11T17:04:07.798Z,1.40
2022-09-11T17:06:34.436Z,1.57
2022-09-11T17:09:02.295Z,1.50
2022-09-11T17:11:31.223Z,1.50
2022-09-11T17:13:59.779Z,1.67
2022-09-11T17:16:28.217Z,1.80
2022-09-11T17:18:56.584Z,1.70
2022-09-11T17:21:24.256Z,1.70
2022-09-11T17:23:56.844Z,1.80
2022-09-11T17:26:25.105Z,1.67
2022-09-11T17:28:54.483Z,1.80
2022-09-11T17:31:24.179Z,1.70
2022-09-11T17:33:51.869Z,1.67
2022-09-11T17:36:21.370Z,1.57
2022-09-11T17:38:49.317Z,1.70
2022-09-11T17:41:16.483Z,1.90
2022-09-11T17:43:42.972Z,2.17
2022-09-11T17:46:15.116Z,2.87
2022-09-11T17:48:42.528Z,2.00
2022-09-11T17:51:20.113Z,1.90
2022-09-11T17:53:52.280Z,2.40
2022-09-11T17:56:21.169Z,2.90
2022-09-11T17:58:52.276Z,2.90
2022-09-11T18:01:19.373Z,2.97
2022-09-11T18:03:50.874Z,3.07
2022-09-11T18:06:31.232Z,3.10
2022-09-11T18:09:01.680Z,3.27
2022-09-11T18:11:29.393Z,3.00
2022-09-11T18:13:55.823Z,2.70
2022-09-11T18:16:22.781Z,3.17
2022-09-11T18:18:49.254Z,3.23
2022-09-11T18:21:15.974Z,3.43
2022-09-11T18:23:45.056Z,3.60
2022-09-11T18:26:26.511Z,3.20
2022-09-11T18:29:02.081Z,3.47
2022-09-11T18:31:31.317Z,3.67
2022-09-11T18:34:00.331Z,3.10
2022-09-11T18:36:28.982Z,3.53
2022-09-11T18:38:57.582Z,3.30
2022-09-11T18:41:24.257Z,3.20
2022-09-11T18:44:00.020Z,3.17
2022-09-11T18:46:27.348Z,3.23
2022-09-11T18:48:55.829Z,3.20
2022-09-11T18:51:22.493Z,3.27
2022-09-11T18:53:52.006Z,3.00
2022-09-11T18:56:19.789Z,3.33
2022-09-11T18:58:47.823Z,3.20
2022-09-11T19:01:15.719Z,3.20
2022-09-11T19:03:43.665Z,3.10
2022-09-11T19:06:15.334Z,3.73
2022-09-11T19:08:44.635Z,5.10
2022-09-11T19:11:16.546Z,4.43
2022-09-11T19:13:44.205Z,5.20
2022-09-11T19:16:11.688Z,7.90
2022-09-11T19:18:42.167Z,12.10
2022-09-11T19:21:12.081Z,18.30
2022-09-11T19:23:43.698Z,18.60
2022-09-11T19:26:22.054Z,18.43
2022-09-11T19:28:50.056Z,19.30
2022-09-11T19:31:21.138Z,17.80
2022-09-11T19:33:48.031Z,17.07
2022-09-11T19:36:17.967Z,15.93
2022-09-11T19:38:46.494Z,14.90
2022-09-11T19:41:15.510Z,13.67
2022-09-11T19:43:42.989Z,12.13
2022-09-11T19:46:10.864Z,9.77
2022-09-11T19:48:40.353Z,10.20
2022-09-11T19:51:23.425Z,9.30
2022-09-11T19:53:51.592Z,8.13
2022-09-11T19:56:19.066Z,7.30
2022-09-11T19:58:45.759Z,6.07
2022-09-11T20:01:17.556Z,6.43
2022-09-11T20:03:45.837Z,5.60
2022-09-11T20:06:14.141Z,5.97
2022-09-11T20:08:45.503Z,5.30
2022-09-11T20:11:15.804Z,5.20
2022-09-11T20:13:42.398Z,6.60
2022-09-11T20:16:15.133Z,5.83
2022-09-11T20:18:42.391Z,6.33
2022-09-11T20:21:11.613Z,7.13
2022-09-11T20:23:39.015Z,8.60
2022-09-11T20:26:17.172Z,8.47
2022-09-11T20:28:45.039Z,7.80
2022-09-11T20:31:18.773Z,8.47
2022-09-11T20:33:46.231Z,8.70
2022-09-11T20:36:13.193Z,8.87
2022-09-11T20:38:39.669Z,8.30
2022-09-11T20:41:07.876Z,8.60
2022-09-11T20:43:34.429Z,8.13
2022-09-11T20:46:01.254Z,8.13
2022-09-11T20:48:28.262Z,8.60
2022-09-11T20:50:54.845Z,7.40
2022-09-11T20:53:24.260Z,8.17
2022-09-11T20:55:50.726Z,7.53
2022-09-11T20:58:17.168Z,7.27
2022-09-11T21:00:46.785Z,7.13
2022-09-11T21:03:13.681Z,7.30
2022-09-11T21:05:40.202Z,7.27
2022-09-11T21:08:06.660Z,6.67
2022-09-11T21:10:36.751Z,6.07
2022-09-11T21:13:03.277Z,5.40
2022-09-11T21:15:29.871Z,5.87
2022-09-11T21:17:56.694Z,5.17
2022-09-11T21:20:23.348Z,5.10
2022-09-11T21:22:50.135Z,5.30
2022-09-11T21:25:16.712Z,5.10
2022-09-11T21:27:43.174Z,5.50
2022-09-11T21:30:10.034Z,5.43
2022-09-11T21:32:36.517Z,5.73
2022-09-11T21:35:02.964Z,5.67
2022-09-11T21:37:29.398Z,5.73
2022-09-11T21:39:55.861Z,5.67
2022-09-11T21:42:22.384Z,5.60
2022-09-11T21:44:48.836Z,4.83
2022-09-11T21:47:15.322Z,5.17
2022-09-11T21:49:41.776Z,4.57
2022-09-11T21:52:08.604Z,4.50
2022-09-11T21:54:35.049Z,4.57
2022-09-11T21:57:01.532Z,4.20
2022-09-11T21:59:27.985Z,4.53
2022-09-11T22:01:54.508Z,4.63
2022-09-11T22:04:21.200Z,4.73
2022-09-11T22:06:47.735Z,3.90
2022-09-11T22:09:20.265Z,4.27
2022-09-11T22:11:47.857Z,4.63
2022-09-11T22:14:19.016Z,4.43
2022-09-11T22:16:46.114Z,4.63
2022-09-11T22:19:13.660Z,5.17
2022-09-11T22:21:40.623Z,4.70
2022-09-11T22:24:07.169Z,4.50
2022-09-11T22:26:33.693Z,4.70
2022-09-11T22:29:00.171Z,4.13
2022-09-11T22:31:28.885Z,4.83
2022-09-11T22:33:55.610Z,4.17
2022-09-11T22:36:27.598Z,4.40
2022-09-11T22:38:54.553Z,4.07
2022-09-11T22:41:21.496Z,4.10
2022-09-11T22:43:49.992Z,4.30
2022-09-11T22:46:19.673Z,4.37
2022-09-11T22:48:46.290Z,4.53
2022-09-11T22:51:13.244Z,4.27
2022-09-11T22:53:40.113Z,3.93
2022-09-11T22:56:07.086Z,4.50
2022-09-11T22:58:33.567Z,4.03
2022-09-11T23:01:03.892Z,3.87
2022-09-11T23:03:30.809Z,4.60
2022-09-11T23:06:17.561Z,4.33
2022-09-11T23:08:45.758Z,4.67
2022-09-11T23:11:15.305Z,4.67
2022-09-11T23:13:42.640Z,4.40
2022-09-11T23:16:15.327Z,4.17
2022-09-11T23:18:42.293Z,4.20
2022-09-11T23:21:09.257Z,4.40
2022-09-11T23:23:40.908Z,3.90
2022-09-11T23:26:08.833Z,3.97
2022-09-11T23:28:35.760Z,4.50
2022-09-11T23:31:02.896Z,4.53
2022-09-11T23:33:30.333Z,3.87
2022-09-11T23:35:56.810Z,4.27
2022-09-11T23:38:23.321Z,4.70
2022-09-11T23:40:49.863Z,3.87
2022-09-11T23:43:16.320Z,3.97
2022-09-11T23:45:42.751Z,4.07
2022-09-11T23:48:09.389Z,4.10
2022-09-11T23:50:35.838Z,4.43
2022-09-11T23:53:02.521Z,3.83
2022-09-11T23:55:29.174Z,4.17
2022-09-11T23:57:55.721Z,4.13
